Terminal Aerodrome Forecast
Issued by NWS Binghamton, NY

Home | Current Version | Previous Version | Text Only | Print | Product List | Glossary On
Versions: 1 2 3 4 5 6 7 8 9 10 11 12 13 14 15 16
651
FTUS41 KBGM 251616 AAB
TAFSYR
TAF AMD
KSYR 251616Z 2516/2612 22007KT P6SM -SHRA BKN050 OVC080
     FM251700 25007KT P6SM SCT040 BKN080
      TEMPO 2518/2520 3SM SHRA BR OVC040
     FM252100 27008KT P6SM BKN250=

USA.gov is the U.S. government's official web portal to all federal, state and local government web resources and services.